This is the latest recevied weather packets stored in our database for station/object KD0SBN-3. If no packets are shown the sender has not sent any weather packets the latest 10 day(s).
| Time | Temp. | Humidity | Pressure | Rain* | Wind** | Luminosity | Snow |
|---|---|---|---|---|---|---|---|
| 1778002019 | 7.78° C | 59% | 1019.4 hPa | 0 mm | - | 354 W/m² | - |
| 1778001716 | 7.78° C | 62% | 1019.4 hPa | 0 mm | - | 397 W/m² | - |
| 1778001415 | 7.78° C | 60% | 1019.5 hPa | 0 mm | - | 392 W/m² | - |
| 1778001113 | 7.22° C | 63% | 1019.5 hPa | 0 mm | - | 366 W/m² | - |
| 1778000810 | 6.67° C | 65% | 1019.6 hPa | 0 mm | - | 321 W/m² | - |
| 1778000507 | 6.11° C | 66% | 1019.6 hPa | 0 mm | - | 907 W/m² | - |
| 1778000206 | 7.22° C | 63% | 1019.6 hPa | 0 mm | - | 271 W/m² | - |
| 1777999903 | 7.78° C | 61% | 1019.6 hPa | 0 mm | - | 455 W/m² | - |
| 1777999598 | 6.67° C | 67% | 1020 hPa | 0 mm | - | 362 W/m² | - |
| 1777999296 | 5.56° C | 68% | 1020.2 hPa | 0 mm | - | 417 W/m² | - |
| 1777998994 | 5.56° C | 70% | 1020 hPa | 0 mm | - | 250 W/m² | - |
| 1777998692 | 6.67° C | 68% | 1020.2 hPa | 0 mm | - | 222 W/m² | - |
| 1777998389 | 6.11° C | 68% | 1020 hPa | 0 mm | - | 278 W/m² | - |
| 1777998087 | 7.22° C | 65% | 1019.9 hPa | 0 mm | - | 261 W/m² | - |
| 1777997784 | 7.22° C | 64% | 1020.2 hPa | 0 mm | - | 275 W/m² | - |
| 1777997481 | 7.22° C | 65% | 1019.8 hPa | 0 mm | - | 417 W/m² | - |
| 1777997179 | 6.67° C | 68% | 1019.8 hPa | 0 mm | - | 448 W/m² | - |
| 1777996876 | 5.56° C | 70% | 1019.8 hPa | 0 mm | - | 344 W/m² | - |
| 1777996571 | 6.67° C | 68% | 1019.8 hPa | 0 mm | - | 303 W/m² | - |
| 1777996268 | 7.22° C | 65% | 1019.8 hPa | 0 mm | - | 288 W/m² | - |
| 1777995964 | 7.22° C | 63% | 1019.6 hPa | 0 mm | - | 278 W/m² | - |
| 1777995660 | 7.22° C | 65% | 1019.8 hPa | 0 mm | - | 275 W/m² | - |
| 1777995358 | 6.67° C | 67% | 1019.6 hPa | 0 mm | - | 343 W/m² | - |
| 1777995055 | 6.11° C | 67% | 1019.9 hPa | 0 mm | - | 270 W/m² | - |
| 1777994752 | 6.11° C | 67% | 1019.4 hPa | 0 mm | - | 269 W/m² | - |
* Rain latest hour (hover to see other rain measurements)
** Current wind speed in m/s (hover to see current wind gust speed)